createdAt,value
2022-07-27T00:04:59.227Z,18.53
2022-07-27T00:11:19.175Z,18.53
2022-07-27T00:17:42.183Z,18.5
2022-07-27T00:24:02.139Z,18.51
2022-07-27T00:30:25.281Z,18.45
2022-07-27T00:36:45.144Z,18.4
2022-07-27T00:43:08.175Z,18.28
2022-07-27T00:49:28.201Z,18.21
2022-07-27T00:55:51.169Z,18.17
2022-07-27T01:02:12.249Z,18.09
2022-07-27T01:08:34.169Z,18.01
2022-07-27T01:14:54.153Z,17.99
2022-07-27T01:21:17.145Z,17.97
2022-07-27T01:27:37.156Z,17.89
2022-07-27T01:34:00.136Z,17.8
2022-07-27T01:40:20.174Z,17.68
2022-07-27T01:46:43.213Z,17.61
2022-07-27T01:53:03.143Z,17.51
2022-07-27T01:59:26.177Z,17.38
2022-07-27T02:05:46.238Z,17.29
2022-07-27T02:12:09.209Z,17.15
2022-07-27T02:18:33.847Z,17.1
2022-07-27T02:24:52.162Z,16.89
2022-07-27T02:31:12.158Z,16.83
2022-07-27T02:37:35.142Z,16.79
2022-07-27T02:43:55.194Z,16.57
2022-07-27T02:50:18.153Z,16.34
2022-07-27T02:56:38.170Z,16.19
2022-07-27T03:03:01.192Z,16.12
2022-07-27T03:09:32.738Z,16.12
2022-07-27T03:15:44.214Z,16.12
2022-07-27T03:22:04.149Z,16.09
2022-07-27T03:28:27.169Z,16.09
2022-07-27T03:34:47.169Z,16.07
2022-07-27T03:41:10.148Z,15.92
2022-07-27T03:47:30.168Z,15.7
2022-07-27T03:53:53.148Z,15.51
2022-07-27T04:00:13.172Z,15.46
2022-07-27T04:16:41.152Z,15.49
2022-07-27T04:23:01.149Z,15.57
2022-07-27T04:29:24.549Z,15.55
2022-07-27T04:35:44.148Z,15.42
2022-07-27T04:42:07.142Z,15.32
2022-07-27T04:48:27.172Z,15.26
2022-07-27T04:54:50.154Z,15.17
2022-07-27T05:01:10.237Z,15.15
2022-07-27T05:07:33.183Z,15.1
2022-07-27T05:13:53.161Z,15.06
2022-07-27T05:20:16.183Z,15.16
2022-07-27T05:26:36.147Z,15.14
2022-07-27T05:32:59.199Z,15.16
2022-07-27T05:39:19.290Z,15.2
2022-07-27T05:45:42.199Z,15.35
2022-07-27T05:52:02.187Z,15.43
2022-07-27T05:58:25.149Z,15.53
2022-07-27T06:04:45.176Z,15.65
2022-07-27T06:11:08.142Z,15.8
2022-07-27T06:17:28.132Z,15.93
2022-07-27T06:23:51.175Z,16.05
2022-07-27T06:30:11.146Z,16.17
2022-07-27T06:36:34.193Z,16.33
2022-07-27T06:42:54.141Z,16.47
2022-07-27T06:49:17.533Z,16.52
2022-07-27T06:55:37.173Z,16.6
2022-07-27T07:02:00.157Z,16.72
2022-07-27T07:08:20.166Z,16.89
2022-07-27T07:14:43.153Z,17.01
2022-07-27T07:21:03.154Z,17.17
2022-07-27T07:27:26.188Z,17.3
2022-07-27T07:33:46.170Z,17.41
2022-07-27T07:40:32.496Z,17.7
2022-07-27T07:46:29.168Z,18.1
2022-07-27T07:52:52.155Z,18.45
2022-07-27T07:59:12.482Z,18.66
2022-07-27T08:05:35.171Z,18.75
2022-07-27T08:11:55.177Z,18.54
2022-07-27T08:18:18.149Z,18.35
2022-07-27T08:24:38.146Z,18.26
2022-07-27T08:31:01.223Z,18.14
2022-07-27T08:37:21.163Z,18.02
2022-07-27T08:43:44.177Z,18.25
2022-07-27T08:50:04.158Z,18.5
2022-07-27T08:56:27.157Z,18.57
2022-07-27T09:02:47.249Z,18.75
2022-07-27T09:09:10.506Z,19.04
2022-07-27T09:15:34.367Z,19.43
2022-07-27T09:21:53.160Z,19.56
2022-07-27T09:28:13.179Z,19.41
2022-07-27T09:34:36.148Z,19.9
2022-07-27T09:40:56.156Z,20.89
2022-07-27T10:04:02.303Z,22.08
2022-07-27T10:10:25.141Z,22.18
2022-07-27T10:16:45.173Z,21.95
2022-07-27T10:23:08.150Z,21.88
2022-07-27T10:29:28.252Z,22.13
2022-07-27T10:35:52.222Z,22.42
2022-07-27T10:42:12.236Z,22.77
2022-07-27T10:48:35.231Z,22.93
2022-07-27T10:54:59.667Z,22.59
2022-07-27T11:01:18.342Z,22.13
2022-07-27T11:07:44.813Z,22.25
2022-07-27T11:14:01.183Z,22.54
2022-07-27T11:20:21.174Z,22.89
2022-07-27T11:26:44.163Z,23.64
2022-07-27T11:33:04.179Z,23.29
2022-07-27T11:45:47.225Z,22.71
2022-07-27T11:52:10.155Z,22.93
2022-07-27T11:58:30.156Z,23.33
2022-07-27T12:04:53.298Z,23.44
2022-07-27T12:11:13.168Z,23.58
2022-07-27T12:17:36.183Z,24.15
2022-07-27T12:23:56.151Z,23.83
2022-07-27T12:30:19.188Z,23.54
2022-07-27T12:36:39.153Z,23.17
2022-07-27T12:43:02.164Z,23.15
2022-07-27T12:49:22.306Z,24.19
2022-07-27T12:55:45.162Z,24.86
2022-07-27T13:02:05.356Z,24.61
2022-07-27T13:08:28.162Z,24.36
2022-07-27T13:14:48.155Z,24.06
2022-07-27T13:21:11.190Z,24.24
2022-07-27T13:27:31.154Z,24.03
2022-07-27T13:33:54.187Z,24.13
2022-07-27T13:40:14.159Z,24.44
2022-07-27T13:46:37.157Z,24.27
2022-07-27T13:52:57.175Z,23.73
2022-07-27T13:59:20.372Z,23.69
2022-07-27T14:05:42.033Z,23.85
2022-07-27T14:12:03.167Z,24.09
2022-07-27T14:18:23.155Z,24.72
2022-07-27T14:24:46.244Z,24.7
2022-07-27T14:31:06.612Z,24.4
2022-07-27T14:37:29.176Z,24.22
2022-07-27T14:43:49.203Z,24.25
2022-07-27T14:50:12.300Z,24.16
2022-07-27T14:56:32.283Z,24.84
2022-07-27T15:02:55.176Z,25.44
2022-07-27T15:09:15.408Z,25.38
2022-07-27T15:15:38.161Z,25.52
2022-07-27T15:32:29.164Z,26.08
2022-07-27T15:38:52.160Z,25.24
2022-07-27T15:45:12.190Z,24.67
2022-07-27T15:51:35.186Z,24.26
2022-07-27T15:57:55.182Z,23.9
2022-07-27T16:04:18.244Z,23.61
2022-07-27T16:10:38.145Z,24.23
2022-07-27T16:17:01.173Z,25.26
2022-07-27T16:23:21.889Z,25.48
2022-07-27T16:29:44.176Z,25.75
2022-07-27T16:36:04.205Z,26.31
2022-07-27T16:42:27.146Z,26.67
2022-07-27T16:48:47.351Z,27.02
2022-07-27T16:55:10.144Z,26.71
2022-07-27T17:01:30.236Z,26.53
2022-07-27T17:07:53.154Z,26.41
2022-07-27T17:14:13.143Z,26.04
2022-07-27T17:20:36.183Z,25.04
2022-07-27T17:26:56.148Z,24.29
2022-07-27T17:33:19.178Z,23.48
2022-07-27T17:39:39.161Z,23
2022-07-27T17:46:02.215Z,22.9
2022-07-27T17:52:22.168Z,22.63
2022-07-27T17:58:45.145Z,22.38
2022-07-27T18:05:05.172Z,22.14
2022-07-27T18:11:28.151Z,21.95
2022-07-27T18:17:48.143Z,21.79
2022-07-27T18:24:11.194Z,21.64
2022-07-27T18:30:31.162Z,21.46
2022-07-27T18:36:54.181Z,21.19
2022-07-27T18:43:14.143Z,21
2022-07-27T18:49:37.148Z,20.81
2022-07-27T18:55:57.163Z,20.7
2022-07-27T19:02:20.211Z,20.58
2022-07-27T19:08:40.450Z,20.46
2022-07-27T19:15:03.167Z,20.36
2022-07-27T19:21:23.183Z,20.14
2022-07-27T19:27:46.154Z,19.89
2022-07-27T19:34:06.148Z,19.7
2022-07-27T19:40:45.771Z,19.47
2022-07-27T19:46:49.156Z,19.26
2022-07-27T19:53:12.171Z,19.12
2022-07-27T19:59:54.866Z,18.97
2022-07-27T20:05:55.150Z,18.83
2022-07-27T20:12:15.163Z,18.74
2022-07-27T20:18:38.172Z,18.68
2022-07-27T20:24:58.195Z,18.63
2022-07-27T20:31:21.193Z,18.56
2022-07-27T20:37:41.179Z,18.39
2022-07-27T20:44:04.176Z,18.25
2022-07-27T20:50:24.153Z,18.16
2022-07-27T20:56:47.174Z,18.06
2022-07-27T21:13:13.156Z,17.76
2022-07-27T21:19:36.157Z,17.44
2022-07-27T21:25:56.190Z,17.09
2022-07-27T21:32:19.152Z,16.87
2022-07-27T21:38:39.187Z,16.73
2022-07-27T21:45:02.276Z,16.57
2022-07-27T21:51:22.174Z,16.44
2022-07-27T21:57:45.179Z,16.31
2022-07-27T22:20:42.153Z,15.8
2022-07-27T22:27:02.179Z,15.7
2022-07-27T22:33:25.182Z,15.65
2022-07-27T22:39:45.185Z,15.63
2022-07-27T22:46:08.267Z,15.59
2022-07-27T22:52:28.177Z,15.56
2022-07-27T22:58:51.201Z,15.52
2022-07-27T23:05:11.231Z,15.41
2022-07-27T23:11:34.191Z,15.34
2022-07-27T23:17:54.187Z,15.32
2022-07-27T23:24:19.139Z,15.2
2022-07-27T23:30:37.206Z,15.08
2022-07-27T23:37:00.223Z,15.05
2022-07-27T23:43:20.238Z,14.97
2022-07-27T23:49:43.160Z,14.94
2022-07-27T23:56:03.184Z,14.93
